Time;durP1;ratioP1;P1;durP2;ratioP2;P2;SDS_P1;SDS_P2;PMS_P1;PMS_P2;Temp;Humidity;BMP_temperature;BMP_pressure;BME280_temperature;BME280_humidity;BME280_pressure;Samples;Min_cycle;Max_cycle;Signal;HPM_P1;HPM_P2
2023/07/14 00:01:51;;;;;;;3.60;1.58;;;25.00;40.20;;;;;;6119119;29;20044;-73
2023/07/14 00:04:52;;;;;;;1.85;1.10;;;24.90;40.20;;;;;;6142175;29;20083;-73
2023/07/14 00:07:54;;;;;;;1.95;1.30;;;24.90;40.50;;;;;;6143218;29;20043;-73
2023/07/14 00:10:56;;;;;;;7.10;1.73;;;24.90;40.70;;;;;;6143389;29;20642;-73
2023/07/14 00:13:57;;;;;;;5.22;1.73;;;24.90;41.00;;;;;;6143219;29;20422;-73
2023/07/14 00:16:58;;;;;;;4.80;1.67;;;24.90;41.30;;;;;;6142618;29;20037;-73
2023/07/14 00:19:59;;;;;;;2.90;1.40;;;24.90;41.40;;;;;;6126592;29;20640;-73
2023/07/14 00:23:01;;;;;;;2.53;1.65;;;24.90;41.60;;;;;;6143258;28;20097;-74
2023/07/14 00:26:02;;;;;;;5.03;1.60;;;24.90;41.70;;;;;;6142575;28;20075;-72
2023/07/14 00:29:21;;;;;;;9.93;1.65;;;24.90;42.00;;;;;;6127756;29;20550;-71
2023/07/14 00:32:23;;;;;;;3.55;1.60;;;24.80;42.10;;;;;;6142492;29;20071;-73
2023/07/14 00:35:27;;;;;;;2.50;1.30;;;24.80;42.20;;;;;;6142708;28;20027;-72
2023/07/14 00:38:29;;;;;;;3.38;1.38;;;24.70;42.30;;;;;;6142343;28;20057;-72
2023/07/14 00:41:30;;;;;;;1.92;1.38;;;24.70;42.40;;;;;;6136298;28;20043;-71
2023/07/14 00:44:31;;;;;;;1.50;1.38;;;24.50;42.40;;;;;;6118371;29;20072;-75
2023/07/14 00:47:34;;;;;;;3.55;1.70;;;24.60;42.60;;;;;;6119128;29;20055;-73
2023/07/14 00:50:51;;;;;;;3.22;1.55;;;24.50;42.50;;;;;;6134204;28;20143;-75
2023/07/14 00:53:52;;;;;;;8.88;1.50;;;24.50;42.60;;;;;;6113353;29;20066;-72
2023/07/14 00:56:55;;;;;;;5.13;1.67;;;24.40;42.50;;;;;;6123210;29;20031;-72
2023/07/14 01:00:00;;;;;;;1.70;1.30;;;24.30;42.70;;;;;;6118714;29;20352;-72
2023/07/14 01:03:05;;;;;;;3.40;1.40;;;24.30;42.70;;;;;;6101851;29;20069;-72
2023/07/14 01:06:12;;;;;;;2.35;1.50;;;24.20;43.00;;;;;;6118466;29;20067;-72
2023/07/14 01:09:14;;;;;;;5.25;1.35;;;24.20;43.20;;;;;;6102965;29;20067;-72
2023/07/14 01:12:20;;;;;;;5.00;1.35;;;24.10;43.40;;;;;;6118452;29;20411;-73
2023/07/14 01:15:21;;;;;;;4.50;1.60;;;24.00;43.70;;;;;;6118566;29;20452;-73
2023/07/14 01:18:22;;;;;;;2.00;1.20;;;24.00;43.80;;;;;;6124216;29;20039;-72
2023/07/14 01:21:24;;;;;;;3.28;1.60;;;24.00;44.00;;;;;;6130221;28;20110;-72
2023/07/14 01:24:35;;;;;;;2.40;1.27;;;23.90;43.90;;;;;;6119578;29;20042;-73
2023/07/14 01:27:36;;;;;;;7.78;1.27;;;23.40;43.70;;;;;;6118431;29;20035;-72
2023/07/14 01:30:39;;;;;;;1.77;1.08;;;23.90;44.10;;;;;;6119523;29;20050;-72
2023/07/14 01:33:39;;;;;;;3.90;1.27;;;23.90;44.20;;;;;;6101727;29;20030;-74
2023/07/14 01:36:43;;;;;;;4.43;1.40;;;23.90;44.30;;;;;;6119186;29;20295;-72
2023/07/14 01:39:46;;;;;;;3.33;1.10;;;23.80;44.60;;;;;;6102295;29;20480;-71
2023/07/14 01:42:55;;;;;;;1.85;1.40;;;23.70;44.80;;;;;;6101718;29;20044;-71
2023/07/14 01:46:00;;;;;;;1.40;1.02;;;23.70;45.00;;;;;;6101582;29;20090;-71
2023/07/14 01:49:34;;;;;;;3.40;1.58;;;23.70;45.00;;;;;;6113220;29;20039;-72
2023/07/14 01:52:35;;;;;;;6.13;1.48;;;23.60;45.10;;;;;;6116661;28;20050;-71
2023/07/14 01:55:38;;;;;;;6.32;1.45;;;23.60;45.20;;;;;;6117699;29;20035;-72
2023/07/14 01:58:57;;;;;;;3.08;1.45;;;23.60;45.40;;;;;;6118168;29;20109;-72
2023/07/14 02:01:59;;;;;;;2.13;1.52;;;23.50;45.50;;;;;;6102550;29;20042;-73
2023/07/14 02:05:33;;;;;;;1.60;1.25;;;23.50;45.70;;;;;;6118684;29;20032;-72
2023/07/14 02:08:34;;;;;;;1.92;1.30;;;23.40;46.00;;;;;;6106545;29;20044;-71
2023/07/14 02:11:36;;;;;;;2.25;1.38;;;23.30;45.80;;;;;;6106295;29;20556;-72
2023/07/14 02:14:45;;;;;;;2.85;1.63;;;23.30;46.30;;;;;;6128780;29;20027;-72
2023/07/14 02:17:47;;;;;;;2.15;1.20;;;23.40;46.40;;;;;;6129362;29;20041;-74
2023/07/14 02:20:49;;;;;;;4.28;1.48;;;23.30;46.40;;;;;;6128913;29;20031;-73
2023/07/14 02:23:51;;;;;;;2.90;1.58;;;23.40;46.40;;;;;;6124212;28;20110;-73
2023/07/14 02:27:03;;;;;;;2.05;1.25;;;23.40;46.50;;;;;;6121017;29;20120;-74
2023/07/14 02:30:19;;;;;;;3.72;1.40;;;23.30;46.50;;;;;;6105555;29;20055;-72
2023/07/14 02:33:25;;;;;;;2.88;1.20;;;23.30;46.60;;;;;;6122014;29;20471;-71
2023/07/14 02:36:32;;;;;;;2.05;1.30;;;23.90;46.90;;;;;;6123217;29;20484;-72
2023/07/14 02:39:39;;;;;;;1.38;1.27;;;23.30;46.70;;;;;;6105613;29;20032;-71
2023/07/14 02:42:40;;;;;;;6.28;1.63;;;23.30;46.70;;;;;;6120811;29;20036;-72
2023/07/14 02:45:56;;;;;;;5.03;1.30;;;24.10;47.20;;;;;;6121210;29;20046;-72
2023/07/14 02:48:57;;;;;;;2.13;1.50;;;23.30;46.80;;;;;;6120999;29;20040;-72
2023/07/14 02:51:58;;;;;;;1.88;1.25;;;23.30;46.80;;;;;;6120839;29;20059;-73
2023/07/14 02:54:59;;;;;;;2.45;1.20;;;23.20;46.80;;;;;;6105212;29;20040;-72
2023/07/14 02:58:01;;;;;;;2.33;1.20;;;23.20;46.90;;;;;;6122759;29;20024;-74
2023/07/14 03:01:05;;;;;;;2.42;1.55;;;23.20;46.90;;;;;;6120692;29;20048;-72
2023/07/14 03:04:09;;;;;;;1.95;1.20;;;23.20;47.00;;;;;;6120661;29;20373;-72
2023/07/14 03:07:10;;;;;;;2.53;1.42;;;23.20;46.90;;;;;;6121473;29;20031;-73
2023/07/14 03:10:11;;;;;;;3.53;1.77;;;23.20;46.90;;;;;;6105310;29;20070;-72
2023/07/14 03:13:14;;;;;;;2.38;1.50;;;23.30;47.10;;;;;;6120237;29;20150;-74
2023/07/14 03:16:16;;;;;;;3.42;1.60;;;23.30;47.40;;;;;;6120707;29;20032;-72
2023/07/14 03:19:17;;;;;;;2.75;1.40;;;23.30;47.60;;;;;;6104378;29;20171;-73
2023/07/14 03:22:18;;;;;;;2.45;1.38;;;23.20;47.80;;;;;;6120129;29;20040;-73
2023/07/14 03:25:19;;;;;;;2.85;1.58;;;23.20;48.00;;;;;;6104309;29;20091;-74
2023/07/14 03:28:20;;;;;;;4.80;2.08;;;23.20;48.30;;;;;;6104273;29;20083;-73
2023/07/14 03:31:21;;;;;;;3.13;1.67;;;23.20;48.40;;;;;;6135808;29;20036;-71
2023/07/14 03:34:25;;;;;;;4.85;1.40;;;23.20;48.50;;;;;;6122427;29;20043;-72
2023/07/14 03:37:27;;;;;;;2.33;1.58;;;23.10;48.60;;;;;;6121504;29;20055;-72
2023/07/14 03:40:28;;;;;;;4.72;1.40;;;23.10;48.70;;;;;;6120325;29;20135;-72
2023/07/14 03:43:29;;;;;;;2.63;1.60;;;23.00;48.80;;;;;;6117086;29;20058;-73
2023/07/14 03:46:30;;;;;;;3.05;1.83;;;23.00;48.90;;;;;;6139415;29;20799;-72
2023/07/14 03:49:31;;;;;;;2.50;1.52;;;23.00;48.90;;;;;;6131201;29;20035;-72
2023/07/14 03:52:33;;;;;;;3.38;1.60;;;23.00;48.90;;;;;;6103757;29;20034;-73
2023/07/14 03:55:34;;;;;;;7.47;1.50;;;23.00;48.90;;;;;;6119204;29;20032;-72
2023/07/14 03:58:34;;;;;;;4.38;1.60;;;23.00;48.90;;;;;;6103314;29;20087;-73
2023/07/14 04:01:36;;;;;;;10.52;1.77;;;22.90;48.70;;;;;;6119339;29;20043;-72
2023/07/14 04:04:37;;;;;;;2.50;1.40;;;23.00;48.70;;;;;;6103724;29;20090;-73
2023/07/14 04:07:40;;;;;;;5.43;1.88;;;23.00;48.80;;;;;;6129727;29;20392;-72
2023/07/14 04:10:42;;;;;;;3.03;1.65;;;23.00;48.80;;;;;;6143944;28;20147;-72
2023/07/14 04:13:44;;;;;;;6.25;1.95;;;23.00;48.80;;;;;;6142618;28;20027;-71
2023/07/14 04:16:48;;;;;;;4.20;1.42;;;23.00;48.90;;;;;;6143422;29;20033;-72
2023/07/14 04:19:50;;;;;;;4.32;1.95;;;23.00;48.90;;;;;;6143466;29;20072;-72
2023/07/14 04:22:53;;;;;;;3.08;1.80;;;22.90;48.90;;;;;;6113873;29;20035;-73
2023/07/14 04:25:54;;;;;;;3.60;1.70;;;22.90;48.90;;;;;;6119214;29;20079;-73
2023/07/14 04:28:56;;;;;;;3.25;2.05;;;22.80;49.00;;;;;;6103219;29;20066;-73
2023/07/14 04:31:58;;;;;;;2.35;1.77;;;22.90;49.30;;;;;;6118771;29;20035;-72
2023/07/14 04:34:59;;;;;;;4.72;1.58;;;22.90;49.50;;;;;;6119462;29;20348;-73
2023/07/14 04:38:00;;;;;;;3.10;1.42;;;22.80;49.50;;;;;;6104241;29;20028;-72
2023/07/14 04:41:01;;;;;;;5.38;1.70;;;22.90;49.40;;;;;;6119516;29;20496;-71
2023/07/14 04:44:13;;;;;;;7.82;1.80;;;22.90;49.30;;;;;;6120498;29;20039;-73
2023/07/14 04:47:14;;;;;;;2.90;1.42;;;22.90;49.20;;;;;;6119513;29;20072;-72
2023/07/14 04:50:16;;;;;;;2.05;1.70;;;22.80;49.10;;;;;;6118705;29;20528;-72
2023/07/14 04:53:19;;;;;;;1.42;1.23;;;22.80;49.00;;;;;;6117974;29;20078;-73
2023/07/14 04:56:21;;;;;;;7.70;1.92;;;22.80;49.20;;;;;;6118223;29;20123;-73
2023/07/14 04:59:22;;;;;;;6.78;1.65;;;22.80;49.60;;;;;;6102740;29;20131;-72
2023/07/14 05:02:23;;;;;;;9.23;1.90;;;22.70;49.80;;;;;;6117832;29;20082;-73
2023/07/14 05:05:26;;;;;;;4.95;1.80;;;22.70;50.20;;;;;;6124505;29;20039;-72
2023/07/14 05:08:27;;;;;;;3.33;1.85;;;22.70;50.30;;;;;;6126631;29;20035;-73
2023/07/14 05:11:28;;;;;;;4.53;1.92;;;22.70;50.50;;;;;;6118966;29;20397;-71
2023/07/14 05:14:29;;;;;;;4.65;2.03;;;22.70;50.30;;;;;;6120004;29;20051;-72
2023/07/14 05:17:30;;;;;;;1.75;1.33;;;22.80;50.30;;;;;;6118016;29;20134;-74
2023/07/14 05:20:31;;;;;;;2.53;1.83;;;22.80;50.30;;;;;;6118222;29;20040;-73
2023/07/14 05:23:32;;;;;;;8.70;1.92;;;22.90;50.20;;;;;;6118198;29;20035;-72
2023/07/14 05:26:34;;;;;;;4.97;1.98;;;22.80;50.20;;;;;;6120593;29;20035;-74
2023/07/14 05:29:35;;;;;;;2.38;1.70;;;22.80;50.20;;;;;;6117910;29;20095;-73
2023/07/14 05:32:35;;;;;;;2.58;1.98;;;22.90;50.20;;;;;;6117805;29;20042;-73
2023/07/14 05:35:37;;;;;;;6.72;2.15;;;22.90;50.10;;;;;;6118270;29;20136;-71
2023/07/14 05:38:38;;;;;;;4.80;1.63;;;23.00;50.10;;;;;;6119546;29;20050;-71
2023/07/14 05:41:38;;;;;;;2.97;1.70;;;23.00;50.00;;;;;;6123619;29;20035;-72
2023/07/14 05:44:40;;;;;;;3.08;1.60;;;23.10;49.90;;;;;;6107372;29;20036;-73
2023/07/14 05:47:46;;;;;;;7.10;1.67;;;23.10;49.80;;;;;;6124583;29;20043;-72
2023/07/14 05:50:48;;;;;;;4.63;1.83;;;23.10;49.70;;;;;;6144632;29;20031;-72
2023/07/14 05:53:49;;;;;;;5.15;1.95;;;23.20;49.80;;;;;;6122412;28;20031;-73
2023/07/14 05:56:51;;;;;;;5.10;1.52;;;23.20;49.70;;;;;;6122983;29;20028;-71
2023/07/14 05:59:52;;;;;;;4.25;1.98;;;23.20;49.40;;;;;;6130716;29;20106;-73
2023/07/14 06:02:54;;;;;;;3.05;1.98;;;23.20;49.40;;;;;;6146236;28;20507;-73
2023/07/14 06:05:56;;;;;;;3.92;1.65;;;23.30;49.60;;;;;;6146231;28;20456;-73
2023/07/14 06:08:57;;;;;;;3.45;1.63;;;23.30;49.50;;;;;;6145940;28;20043;-72
2023/07/14 06:11:58;;;;;;;2.42;1.65;;;23.30;49.40;;;;;;6145604;29;20395;-72
2023/07/14 06:14:59;;;;;;;3.03;2.10;;;23.30;49.40;;;;;;6146013;29;20046;-73
2023/07/14 06:18:01;;;;;;;4.05;1.33;;;23.40;49.20;;;;;;6147974;28;20552;-72
2023/07/14 06:21:01;;;;;;;2.78;1.70;;;23.50;48.90;;;;;;6148163;28;20054;-71
2023/07/14 06:24:02;;;;;;;3.10;1.92;;;23.50;48.60;;;;;;6123907;29;20052;-73
2023/07/14 06:27:05;;;;;;;3.90;1.95;;;23.50;48.60;;;;;;6121994;29;20141;-72
2023/07/14 06:30:08;;;;;;;5.68;2.10;;;23.50;49.20;;;;;;6105879;29;20040;-72
2023/07/14 06:33:09;;;;;;;3.00;1.70;;;23.50;48.40;;;;;;6105256;29;20078;-72
2023/07/14 06:36:11;;;;;;;1.83;1.38;;;23.70;48.30;;;;;;6123338;28;20490;-73
2023/07/14 06:39:12;;;;;;;4.22;2.00;;;23.70;48.10;;;;;;6123371;29;20039;-73
2023/07/14 06:42:12;;;;;;;5.32;2.00;;;23.90;48.00;;;;;;6121992;29;20441;-72
2023/07/14 06:45:13;;;;;;;10.20;2.20;;;24.00;48.30;;;;;;6120686;28;20028;-72
2023/07/14 06:48:15;;;;;;;2.83;1.77;;;24.20;47.50;;;;;;6105057;29;20777;-72
2023/07/14 06:51:17;;;;;;;3.20;1.58;;;24.30;47.20;;;;;;6122054;29;20028;-71
2023/07/14 06:54:18;;;;;;;5.25;2.20;;;24.40;47.00;;;;;;6120530;29;20027;-72
2023/07/14 06:57:19;;;;;;;4.90;1.50;;;24.60;46.80;;;;;;6120567;29;20047;-73
2023/07/14 07:00:21;;;;;;;6.00;1.92;;;24.70;46.40;;;;;;6105509;29;20045;-73
2023/07/14 07:03:21;;;;;;;4.22;2.28;;;24.90;46.10;;;;;;6105194;29;20047;-73
2023/07/14 07:06:22;;;;;;;2.38;1.67;;;24.90;45.80;;;;;;6120939;29;20071;-72
2023/07/14 07:09:23;;;;;;;7.40;1.75;;;25.00;45.60;;;;;;6105188;29;20031;-71
2023/07/14 07:12:24;;;;;;;3.20;1.83;;;25.20;45.40;;;;;;6120446;29;20556;-72
2023/07/14 07:15:25;;;;;;;6.13;1.88;;;25.40;45.10;;;;;;6120234;29;20035;-72
2023/07/14 07:18:28;;;;;;;5.03;1.88;;;25.50;44.70;;;;;;6104816;29;20058;-71
2023/07/14 07:21:29;;;;;;;5.85;2.05;;;25.70;44.60;;;;;;6120667;29;20036;-74
2023/07/14 07:24:31;;;;;;;5.28;1.88;;;25.80;44.10;;;;;;6121161;29;20032;-74
2023/07/14 07:27:32;;;;;;;3.25;1.88;;;25.80;43.90;;;;;;6120250;29;20031;-72
2023/07/14 07:30:33;;;;;;;10.02;1.85;;;25.90;43.80;;;;;;6120135;29;20043;-72
2023/07/14 07:33:36;;;;;;;6.80;2.63;;;25.90;43.80;;;;;;6123819;29;20468;-75
2023/07/14 07:36:37;;;;;;;4.15;2.15;;;26.00;43.70;;;;;;6121129;29;20028;-72
2023/07/14 07:39:38;;;;;;;3.00;1.90;;;26.00;43.50;;;;;;6120381;29;20484;-73
2023/07/14 07:42:40;;;;;;;4.72;2.20;;;25.90;43.50;;;;;;6120149;29;20027;-73
2023/07/14 07:45:48;;;;;;;4.45;2.08;;;26.00;43.30;;;;;;6105174;29;20035;-73
2023/07/14 07:48:50;;;;;;;5.15;1.77;;;26.10;42.90;;;;;;6126493;29;20122;-74
2023/07/14 07:51:51;;;;;;;6.82;1.85;;;26.10;42.60;;;;;;6139487;29;20122;-74
2023/07/14 07:54:52;;;;;;;3.95;1.70;;;26.10;42.40;;;;;;6120195;29;20059;-72
2023/07/14 07:57:55;;;;;;;4.20;2.15;;;26.10;41.60;;;;;;6119893;29;20040;-72
2023/07/14 08:00:59;;;;;;;3.10;1.83;;;26.10;42.00;;;;;;6119989;29;20544;-73
2023/07/14 08:04:00;;;;;;;2.38;1.55;;;26.20;41.60;;;;;;6103549;29;20066;-73
2023/07/14 08:07:01;;;;;;;4.97;1.42;;;26.30;41.50;;;;;;6104915;29;20044;-73
2023/07/14 08:10:03;;;;;;;4.38;1.80;;;26.40;41.70;;;;;;6119902;29;20035;-73
2023/07/14 08:13:04;;;;;;;5.03;2.28;;;26.40;41.60;;;;;;6119731;29;20032;-72
2023/07/14 08:16:05;;;;;;;2.47;1.73;;;26.60;41.60;;;;;;6119727;29;20063;-73
2023/07/14 08:19:06;;;;;;;2.60;1.73;;;26.80;41.30;;;;;;6103464;29;20032;-72
2023/07/14 08:22:07;;;;;;;3.22;1.67;;;26.80;41.00;;;;;;6119621;29;20136;-74
2023/07/14 08:25:10;;;;;;;3.85;1.70;;;26.90;40.80;;;;;;6134499;28;20071;-74
2023/07/14 08:28:11;;;;;;;4.80;1.50;;;27.00;40.60;;;;;;6118635;29;20042;-72
2023/07/14 08:31:13;;;;;;;3.03;1.83;;;27.20;40.50;;;;;;6118885;29;20039;-72
2023/07/14 08:34:14;;;;;;;6.25;1.58;;;27.30;40.20;;;;;;6118830;29;20033;-72
2023/07/14 08:37:15;;;;;;;3.28;1.55;;;27.50;40.00;;;;;;6120720;29;20030;-73
2023/07/14 08:40:33;;;;;;;2.03;1.63;;;27.60;39.70;;;;;;6119062;29;20053;-72
2023/07/14 08:43:37;;;;;;;2.08;1.45;;;27.70;39.40;;;;;;6094446;29;20119;-75
2023/07/14 08:46:53;;;;;;;2.92;2.20;;;27.90;39.30;;;;;;6110826;29;20729;-73
2023/07/14 08:50:03;;;;;;;2.78;1.55;;;28.80;39.50;;;;;;6117273;29;20153;-73
2023/07/14 08:53:14;;;;;;;4.35;1.88;;;28.10;38.70;;;;;;6099674;29;20446;-74
2023/07/14 08:56:19;;;;;;;4.15;2.20;;;28.20;38.60;;;;;;6096626;29;20032;-74
2023/07/14 08:59:33;;;;;;;2.88;1.85;;;28.20;38.60;;;;;;6096011;29;20056;-75
2023/07/14 09:02:43;;;;;;;2.30;1.63;;;28.20;38.70;;;;;;6110716;29;20032;-72
2023/07/14 09:05:58;;;;;;;6.60;2.13;;;28.30;38.80;;;;;;6096532;29;20032;-73
2023/07/14 09:09:00;;;;;;;3.78;1.80;;;28.40;38.90;;;;;;6095010;29;20446;-73
2023/07/14 09:12:34;;;;;;;2.78;1.90;;;28.50;38.70;;;;;;6110419;29;20040;-73
2023/07/14 09:15:35;;;;;;;3.55;1.90;;;28.60;38.70;;;;;;6112849;29;20563;-72
2023/07/14 09:19:37;;;;;;;3.15;1.48;;;28.70;38.60;;;;;;6115852;29;20247;-73
2023/07/14 09:22:49;;;;;;;7.93;1.70;;;28.80;38.30;;;;;;6084132;29;20029;-71
2023/07/14 09:26:06;;;;;;;4.65;2.20;;;28.90;38.00;;;;;;6097482;29;20064;-72
2023/07/14 09:29:21;;;;;;;3.78;1.52;;;29.10;38.10;;;;;;6097260;29;20048;-73
2023/07/14 09:32:34;;;;;;;2.55;1.50;;;29.20;37.60;;;;;;6097218;29;20099;-73
2023/07/14 09:35:35;;;;;;;2.42;1.52;;;29.30;37.20;;;;;;6097327;29;20035;-73
2023/07/14 09:38:46;;;;;;;2.88;1.73;;;29.40;36.80;;;;;;6096956;29;20393;-72
2023/07/14 09:41:50;;;;;;;2.92;1.30;;;29.40;36.70;;;;;;6089626;29;20040;-72
2023/07/14 09:45:03;;;;;;;5.57;1.83;;;29.40;36.60;;;;;;6080971;29;20044;-75
2023/07/14 09:48:18;;;;;;;2.72;1.52;;;29.50;36.20;;;;;;6096897;29;20404;-72
2023/07/14 09:51:23;;;;;;;1.73;1.20;;;29.50;36.00;;;;;;6080366;29;20043;-73
2023/07/14 09:54:24;;;;;;;1.92;1.40;;;29.50;36.30;;;;;;6111555;29;20141;-74
2023/07/14 09:57:27;;;;;;;5.22;1.50;;;29.50;35.20;;;;;;6131230;28;20028;-72
2023/07/14 10:00:39;;;;;;;2.58;1.88;;;29.60;35.30;;;;;;6114694;29;20046;-74
2023/07/14 10:03:51;;;;;;;4.15;1.67;;;29.60;35.40;;;;;;6130512;28;20028;-73
2023/07/14 10:06:54;;;;;;;4.20;1.65;;;29.80;35.40;;;;;;6114613;29;20040;-73
2023/07/14 10:10:01;;;;;;;2.10;1.27;;;29.80;35.00;;;;;;6114119;29;20070;-72
2023/07/14 10:13:19;;;;;;;2.20;1.20;;;29.90;34.90;;;;;;6115672;29;20035;-72
2023/07/14 10:16:21;;;;;;;3.95;1.17;;;30.00;34.90;;;;;;6100360;29;20028;-73
2023/07/14 10:19:33;;;;;;;4.38;1.60;;;30.10;34.70;;;;;;6123631;29;20039;-73
2023/07/14 10:22:37;;;;;;;3.38;1.80;;;30.20;34.60;;;;;;6119460;29;20035;-73
2023/07/14 10:25:38;;;;;;;6.75;1.92;;;30.30;34.40;;;;;;6106350;29;20028;-73
2023/07/14 10:28:39;;;;;;;7.10;1.88;;;30.40;34.20;;;;;;6122269;29;20030;-74
2023/07/14 10:31:54;;;;;;;3.20;1.38;;;30.50;34.90;;;;;;6137668;29;20035;-73
2023/07/14 10:35:08;;;;;;;2.08;1.30;;;30.60;34.10;;;;;;6121598;29;20087;-72
2023/07/14 10:38:32;;;;;;;4.72;1.65;;;30.70;33.80;;;;;;6106037;29;20058;-74
2023/07/14 10:41:35;;;;;;;3.25;1.30;;;30.80;33.70;;;;;;6137129;29;20060;-72
2023/07/14 10:44:40;;;;;;;1.88;1.15;;;30.80;33.50;;;;;;6121443;29;20111;-72
2023/07/14 10:48:04;;;;;;;3.28;1.65;;;30.90;33.40;;;;;;6121522;29;20458;-74
2023/07/14 10:51:20;;;;;;;2.15;1.52;;;30.90;33.50;;;;;;6113016;29;20122;-73
2023/07/14 10:54:43;;;;;;;3.25;1.60;;;30.90;33.50;;;;;;6120548;29;20460;-74
2023/07/14 10:57:52;;;;;;;2.35;1.23;;;30.90;33.70;;;;;;6120639;29;20087;-74
2023/07/14 11:01:00;;;;;;;3.03;1.38;;;31.00;33.60;;;;;;6137328;28;20182;-73
2023/07/14 11:04:29;;;;;;;2.97;1.80;;;31.00;33.70;;;;;;6137103;29;20042;-74
2023/07/14 11:07:34;;;;;;;11.30;1.63;;;31.00;33.90;;;;;;6105879;29;20048;-74
2023/07/14 11:11:02;;;;;;;4.95;1.50;;;31.40;33.70;;;;;;6122431;29;20476;-73
2023/07/14 11:14:22;;;;;;;3.23;1.30;;;32.30;32.80;;;;;;6116552;29;20473;-72
2023/07/14 11:17:26;;;;;;;2.88;1.40;;;33.40;31.40;;;;;;6097135;29;20040;-73
2023/07/14 11:20:44;;;;;;;6.97;1.27;;;34.30;30.00;;;;;;6113360;29;20125;-74
2023/07/14 11:24:02;;;;;;;5.97;1.60;;;35.00;29.30;;;;;;6131832;29;20035;-72
2023/07/14 11:27:08;;;;;;;3.85;1.48;;;35.70;28.60;;;;;;6120624;29;20106;-73
2023/07/14 11:30:17;;;;;;;2.83;1.20;;;36.00;28.20;;;;;;6104589;29;20044;-74
2023/07/14 11:33:37;;;;;;;2.15;1.35;;;36.30;28.00;;;;;;6121186;29;20035;-72
2023/07/14 11:36:58;;;;;;;3.83;1.20;;;36.70;27.70;;;;;;6119917;29;20127;-75
2023/07/14 11:40:01;;;;;;;3.92;1.08;;;37.10;27.50;;;;;;6120565;29;20039;-73
2023/07/14 11:43:03;;;;;;;2.45;1.33;;;37.50;26.90;;;;;;6120030;29;20039;-71
2023/07/14 11:46:09;;;;;;;2.85;1.55;;;38.10;26.50;;;;;;6103930;29;20040;-72
2023/07/14 11:49:34;;;;;;;4.50;1.25;;;38.40;26.00;;;;;;6129231;29;20032;-72
2023/07/14 11:52:38;;;;;;;6.20;1.80;;;38.70;25.50;;;;;;6133271;29;20377;-73
2023/07/14 11:55:41;;;;;;;2.58;1.30;;;39.20;25.20;;;;;;6120211;29;20341;-73
2023/07/14 11:58:44;;;;;;;4.22;1.00;;;39.40;24.50;;;;;;6119578;29;20477;-72
2023/07/14 12:01:50;;;;;;;1.90;1.20;;;39.30;24.30;;;;;;6119414;29;20036;-72
2023/07/14 12:05:14;;;;;;;1.58;1.00;;;39.50;24.40;;;;;;6120010;29;20067;-74
2023/07/14 12:08:23;;;;;;;2.08;1.02;;;39.70;24.40;;;;;;6120806;28;20130;-74
2023/07/14 12:11:30;;;;;;;1.85;1.02;;;40.10;24.10;;;;;;6119780;29;20156;-72
2023/07/14 12:14:37;;;;;;;2.97;1.30;;;40.40;23.90;;;;;;6103164;29;20102;-74
2023/07/14 12:17:38;;;;;;;1.00;0.90;;;40.60;23.60;;;;;;6119531;29;20094;-74
2023/07/14 12:20:39;;;;;;;4.07;1.10;;;40.90;23.20;;;;;;6120478;29;20076;-74
2023/07/14 12:23:41;;;;;;;1.85;1.30;;;41.00;23.00;;;;;;6102528;29;20119;-73
2023/07/14 12:26:47;;;;;;;2.00;1.10;;;41.20;22.70;;;;;;6103948;29;20043;-74
2023/07/14 12:29:52;;;;;;;1.55;1.13;;;41.10;22.70;;;;;;6121060;29;20172;-74
2023/07/14 12:33:01;;;;;;;3.80;1.20;;;41.00;22.80;;;;;;6119013;29;20055;-74
2023/07/14 12:36:03;;;;;;;2.72;1.10;;;41.00;22.60;;;;;;6119352;29;20110;-72
2023/07/14 12:39:04;;;;;;;2.08;1.10;;;41.10;23.10;;;;;;6119883;29;20039;-73
2023/07/14 12:42:08;;;;;;;2.42;1.20;;;41.20;22.40;;;;;;6118201;29;20039;-74
2023/07/14 12:45:13;;;;;;;1.23;1.05;;;41.40;22.30;;;;;;6118450;29;20063;-74
2023/07/14 12:48:14;;;;;;;5.70;1.20;;;41.50;22.30;;;;;;6118316;29;20106;-73
2023/07/14 12:51:22;;;;;;;4.45;1.10;;;41.50;22.10;;;;;;6117031;29;20069;-73
2023/07/14 12:54:26;;;;;;;1.33;1.00;;;41.40;22.20;;;;;;6118781;29;20367;-74
2023/07/14 12:57:31;;;;;;;1.25;0.75;;;41.50;22.00;;;;;;6119342;29;20451;-74
2023/07/14 13:00:36;;;;;;;1.17;0.98;;;41.30;22.00;;;;;;6119392;29;20048;-73
2023/07/14 13:03:38;;;;;;;3.00;1.00;;;41.40;22.10;;;;;;6102999;29;20508;-73
2023/07/14 13:06:42;;;;;;;1.08;0.80;;;41.70;21.90;;;;;;6118974;29;20051;-73
2023/07/14 13:09:43;;;;;;;1.13;0.93;;;42.10;21.50;;;;;;6134927;29;20035;-73
2023/07/14 13:12:45;;;;;;;0.82;0.80;;;42.20;21.30;;;;;;6118286;29;20043;-73
2023/07/14 13:15:51;;;;;;;1.83;1.10;;;42.50;21.20;;;;;;6102911;29;20043;-73
2023/07/14 13:18:58;;;;;;;2.03;1.00;;;42.80;21.00;;;;;;6120440;29;20055;-73
2023/07/14 13:21:59;;;;;;;;;;;43.30;20.80;;;;;;6102483;29;20472;-73
2023/07/14 13:25:08;;;;;;;1.55;0.95;;;43.90;20.40;;;;;;6118679;29;20347;-73
2023/07/14 13:28:41;;;;;;;1.20;1.10;;;44.40;20.00;;;;;;6103342;29;20039;-73
2023/07/14 13:31:46;;;;;;;1.25;0.90;;;44.80;19.90;;;;;;6122653;29;20067;-73
2023/07/14 13:34:50;;;;;;;3.65;1.10;;;45.20;19.40;;;;;;6119810;29;20131;-74
2023/07/14 13:38:12;;;;;;;2.67;1.02;;;45.90;19.10;;;;;;6102648;29;20457;-73
2023/07/14 13:41:18;;;;;;;1.20;1.02;;;46.30;18.70;;;;;;6119393;29;20039;-72
2023/07/14 13:44:45;;;;;;;1.10;1.00;;;46.70;18.50;;;;;;6118162;29;20038;-74
2023/07/14 13:47:51;;;;;;;1.85;1.13;;;46.90;18.10;;;;;;6119303;29;20062;-73
2023/07/14 13:50:52;;;;;;;3.77;1.30;;;47.00;18.00;;;;;;6102845;29;20035;-73
2023/07/14 13:53:53;;;;;;;0.98;0.90;;;47.00;18.00;;;;;;6117552;29;20102;-73
2023/07/14 13:56:53;;;;;;;2.75;0.95;;;47.10;18.10;;;;;;6118079;29;20040;-73
2023/07/14 13:59:55;;;;;;;1.50;0.95;;;47.50;17.90;;;;;;6117852;29;20032;-73
2023/07/14 14:03:01;;;;;;;2.35;1.10;;;47.80;17.70;;;;;;6121699;29;20098;-73
2023/07/14 14:06:02;;;;;;;1.10;1.00;;;47.90;17.50;;;;;;6122697;29;20049;-73
2023/07/14 14:09:17;;;;;;;3.58;1.20;;;47.70;17.60;;;;;;6122667;29;20036;-73
2023/07/14 14:12:34;;;;;;;5.50;1.17;;;47.30;17.70;;;;;;6107816;29;20126;-74
2023/07/14 14:15:42;;;;;;;6.38;1.50;;;47.30;17.60;;;;;;6138017;28;20035;-74
2023/07/14 14:18:48;;;;;;;1.73;1.05;;;47.80;17.50;;;;;;6106345;29;20036;-74
2023/07/14 14:21:59;;;;;;;2.58;1.55;;;47.90;17.20;;;;;;6137812;28;20074;-74
2023/07/14 14:25:11;;;;;;;2.17;1.48;;;48.10;17.10;;;;;;6138243;28;20185;-73
2023/07/14 14:28:13;;;;;;;1.77;1.20;;;48.40;17.00;;;;;;6098844;29;20036;-73
2023/07/14 14:31:14;;;;;;;2.38;1.20;;;48.40;16.80;;;;;;6098128;29;20675;-74
2023/07/14 14:34:16;;;;;;;2.40;1.20;;;47.90;16.90;;;;;;6082236;29;20032;-73
2023/07/14 14:37:17;;;;;;;3.33;1.45;;;47.60;17.10;;;;;;6098225;29;20103;-73
2023/07/14 14:40:18;;;;;;;2.28;1.38;;;47.90;17.50;;;;;;6114263;29;20055;-74
2023/07/14 14:43:22;;;;;;;3.80;1.13;;;48.10;16.50;;;;;;6119259;29;20365;-74
2023/07/14 14:46:24;;;;;;;5.90;1.15;;;48.40;16.40;;;;;;6121371;29;20040;-73
2023/07/14 14:49:25;;;;;;;2.25;1.23;;;48.50;16.50;;;;;;6121909;29;20099;-73
2023/07/14 14:52:26;;;;;;;4.70;1.25;;;48.10;16.80;;;;;;6137282;29;20039;-73
2023/07/14 14:55:27;;;;;;;2.85;1.30;;;47.70;17.30;;;;;;6121730;29;20089;-73
2023/07/14 14:58:31;;;;;;;2.88;1.40;;;47.60;17.60;;;;;;6105583;29;20039;-73
2023/07/14 15:01:42;;;;;;;2.22;1.13;;;47.30;17.50;;;;;;6120716;29;20036;-73
2023/07/14 15:04:43;;;;;;;1.38;1.10;;;46.80;17.80;;;;;;6105332;29;20520;-72
2023/07/14 15:07:44;;;;;;;1.92;1.13;;;46.50;18.30;;;;;;6121186;29;20052;-75
2023/07/14 15:10:49;;;;;;;2.20;1.20;;;46.20;18.30;;;;;;6121267;29;20067;-72
2023/07/14 15:13:50;;;;;;;1.20;1.10;;;45.90;18.50;;;;;;6104567;29;20123;-72
2023/07/14 15:16:53;;;;;;;1.83;1.10;;;45.00;18.90;;;;;;6122219;29;20039;-73
2023/07/14 15:19:56;;;;;;;3.17;1.42;;;44.10;19.70;;;;;;6104956;29;20042;-73
2023/07/14 15:22:59;;;;;;;1.38;1.02;;;43.30;20.20;;;;;;6104152;29;20122;-73
2023/07/14 15:26:00;;;;;;;1.60;1.00;;;43.20;20.20;;;;;;6120274;29;20015;-73
2023/07/14 15:29:02;;;;;;;2.78;1.23;;;43.60;19.90;;;;;;6121328;29;20527;-72
2023/07/14 15:32:03;;;;;;;1.35;1.15;;;44.00;19.60;;;;;;6103191;29;20046;-72
2023/07/14 15:35:39;;;;;;;3.72;1.30;;;44.40;19.50;;;;;;6121064;29;20035;-73
2023/07/14 15:38:42;;;;;;;1.75;1.15;;;44.80;18.90;;;;;;6119879;29;20038;-73
2023/07/14 15:41:43;;;;;;;1.10;1.00;;;45.10;18.70;;;;;;6103880;29;20110;-73
2023/07/14 15:44:45;;;;;;;6.72;1.30;;;45.20;18.60;;;;;;6119832;29;20032;-72
2023/07/14 15:47:48;;;;;;;1.73;0.80;;;45.40;18.30;;;;;;6120948;29;20054;-72
2023/07/14 15:50:52;;;;;;;1.85;1.30;;;45.40;18.20;;;;;;6104421;29;20130;-74
2023/07/14 15:54:05;;;;;;;2.20;1.17;;;45.50;18.10;;;;;;6100577;29;20123;-73
2023/07/14 15:57:12;;;;;;;1.75;1.27;;;45.60;18.00;;;;;;6126560;29;20095;-74
2023/07/14 16:00:16;;;;;;;6.45;0.90;;;45.60;17.90;;;;;;6144073;28;20086;-74
2023/07/14 16:03:17;;;;;;;1.83;1.05;;;45.60;18.00;;;;;;6118616;29;20075;-74
2023/07/14 16:06:20;;;;;;;5.07;2.00;;;45.60;17.90;;;;;;6120074;29;20032;-73